Time;durP1;ratioP1;P1;durP2;ratioP2;P2;SDS_P1;SDS_P2;PMS_P1;PMS_P2;Temp;Humidity;BMP_temperature;BMP_pressure;BME280_temperature;BME280_humidity;BME280_pressure;Samples;Min_cycle;Max_cycle;Signal;HPM_P1;HPM_P2
2022/05/12 00:02:08;;;;;;;3.35;0.70;;;;;;;20.91;32.03;102188.53;5010894;23;20442;-48
2022/05/12 00:04:36;;;;;;;4.32;1.02;;;;;;;20.95;32.29;102197.88;4994745;28;20030;-48
2022/05/12 00:07:03;;;;;;;1.75;0.60;;;;;;;20.77;31.94;102197.00;4994109;28;20375;-46
2022/05/12 00:09:29;;;;;;;2.67;0.80;;;;;;;20.30;32.63;102196.22;4994607;28;20041;-45
2022/05/12 00:11:56;;;;;;;2.55;0.75;;;;;;;20.01;32.09;102201.53;4995459;28;20037;-48
2022/05/12 00:14:22;;;;;;;2.75;0.80;;;;;;;19.86;31.84;102203.06;4994312;28;20041;-48
2022/05/12 00:16:49;;;;;;;3.28;0.70;;;;;;;19.85;32.20;102204.13;4982654;28;20130;-49
2022/05/12 00:19:15;;;;;;;2.00;0.50;;;;;;;19.50;32.56;102205.69;4994988;28;20034;-49
2022/05/12 00:21:41;;;;;;;2.42;0.80;;;;;;;19.28;31.80;102198.31;5006735;28;20036;-49
2022/05/12 00:24:08;;;;;;;1.50;0.50;;;;;;;19.44;30.46;102198.47;5008520;28;20038;-50
2022/05/12 00:26:37;;;;;;;2.17;0.55;;;;;;;19.29;30.42;102200.78;4995264;28;20026;-48
2022/05/12 00:29:06;;;;;;;4.22;0.30;;;;;;;19.33;31.60;102203.88;4994775;28;20459;-49
2022/05/12 00:31:35;;;;;;;0.93;0.30;;;;;;;19.05;31.30;102210.72;4995367;28;20022;-49
2022/05/12 00:34:02;;;;;;;4.22;0.70;;;;;;;18.85;32.78;102210.97;4997698;28;20468;-50
2022/05/12 00:36:28;;;;;;;3.17;0.63;;;;;;;18.73;32.66;102208.19;4994782;28;20089;-49
2022/05/12 00:38:54;;;;;;;1.83;0.50;;;;;;;18.87;32.55;102216.16;4994869;28;20030;-49
2022/05/12 00:41:20;;;;;;;2.40;0.60;;;;;;;19.04;32.92;102209.06;5002388;28;20105;-45
2022/05/12 00:43:56;;;;;;;1.88;0.50;;;;;;;18.91;33.54;102215.50;5014390;28;20124;-49
2022/05/12 00:46:28;;;;;;;2.80;0.60;;;;;;;18.85;33.50;102216.41;5007010;28;20479;-48
2022/05/12 00:48:59;;;;;;;2.90;0.70;;;;;;;18.85;34.92;102205.56;4994584;28;20034;-46
2022/05/12 00:51:35;;;;;;;4.13;0.60;;;;;;;19.15;34.59;102211.00;4995161;28;20373;-49
2022/05/12 00:54:08;;;;;;;2.88;0.73;;;;;;;19.16;33.82;102218.09;4990889;28;20332;-47
2022/05/12 00:56:35;;;;;;;3.58;0.60;;;;;;;19.15;33.84;102219.13;4974892;28;20491;-49
2022/05/12 00:59:07;;;;;;;2.03;0.60;;;;;;;19.08;34.07;102209.44;4974411;28;20042;-50
2022/05/12 01:01:33;;;;;;;2.42;0.77;;;;;;;18.99;34.71;102207.06;4989591;28;20029;-49
2022/05/12 01:04:01;;;;;;;1.80;0.80;;;;;;;18.98;34.16;102213.50;5013346;28;20116;-47
2022/05/12 01:06:27;;;;;;;6.28;0.65;;;;;;;18.78;34.27;102214.84;5006686;28;20022;-49
2022/05/12 01:08:53;;;;;;;1.20;0.60;;;;;;;18.60;35.23;102221.03;5001561;28;20038;-47
2022/05/12 01:11:21;;;;;;;2.97;0.77;;;;;;;18.55;35.46;102210.91;5002681;28;20042;-48
2022/05/12 01:14:08;;;;;;;3.25;1.00;;;;;;;18.42;35.92;102208.31;5013197;28;20501;-46
2022/05/12 01:16:46;;;;;;;2.22;0.70;;;;;;;18.44;36.24;102206.22;5013747;28;20030;-49
2022/05/12 01:19:33;;;;;;;4.25;0.80;;;;;;;18.25;36.71;102199.94;5013033;28;20033;-49
2022/05/12 01:22:01;;;;;;;3.35;0.90;;;;;;;18.28;36.16;102213.06;5013407;28;20029;-49
2022/05/12 01:24:43;;;;;;;2.95;0.80;;;;;;;18.11;37.17;102201.97;5013547;28;20113;-50
2022/05/12 01:27:19;;;;;;;2.45;0.90;;;;;;;18.13;36.20;102207.97;5008558;28;20046;-48
2022/05/12 01:29:57;;;;;;;3.03;0.77;;;;;;;18.05;36.29;102213.69;4993965;28;20030;-47
2022/05/12 01:32:27;;;;;;;5.00;1.00;;;;;;;18.02;36.62;102219.53;4993683;28;20026;-50
2022/05/12 01:34:54;;;;;;;4.35;0.93;;;;;;;17.87;37.30;102217.16;4993623;28;20390;-50
2022/05/12 01:37:22;;;;;;;2.97;0.80;;;;;;;17.96;36.66;102220.44;4993401;28;20030;-47
2022/05/12 01:39:48;;;;;;;4.10;0.80;;;;;;;17.95;36.67;102235.03;4993352;28;20084;-48
2022/05/12 01:42:15;;;;;;;1.63;0.57;;;;;;;17.77;36.88;102227.69;4994732;28;20057;-47
2022/05/12 01:44:42;;;;;;;2.20;0.60;;;;;;;17.69;37.18;102233.31;4993361;28;20026;-47
2022/05/12 01:47:09;;;;;;;3.75;1.05;;;;;;;17.67;37.23;102225.44;4989342;28;20024;-45
2022/05/12 01:49:36;;;;;;;3.05;0.80;;;;;;;17.72;37.78;102232.06;4973543;28;20035;-49
2022/05/12 01:52:03;;;;;;;5.43;0.90;;;;;;;17.46;36.90;102236.59;4974065;28;20069;-45
2022/05/12 01:54:30;;;;;;;2.30;0.77;;;;;;;17.33;37.95;102240.22;4979305;28;20052;-46
2022/05/12 01:56:57;;;;;;;3.08;0.88;;;;;;;17.36;37.95;102238.94;4993581;28;20064;-47
2022/05/12 01:59:24;;;;;;;1.98;0.90;;;;;;;17.10;38.18;102231.78;4992893;28;20045;-49
2022/05/12 02:01:50;;;;;;;4.57;0.80;;;;;;;17.25;37.92;102232.34;4996377;28;20050;-49
2022/05/12 02:04:17;;;;;;;2.63;0.68;;;;;;;17.11;37.06;102231.59;5012444;28;20117;-46
2022/05/12 02:06:44;;;;;;;5.32;0.80;;;;;;;17.10;37.28;102229.94;5001387;28;20030;-47
2022/05/12 02:09:11;;;;;;;4.35;0.85;;;;;;;17.05;37.50;102237.88;4992240;28;20486;-46
2022/05/12 02:11:37;;;;;;;3.08;0.70;;;;;;;16.96;38.39;102235.63;4994363;28;20181;-49
2022/05/12 02:14:05;;;;;;;3.13;0.85;;;;;;;17.07;38.22;102235.78;4988950;28;20026;-49
2022/05/12 02:16:33;;;;;;;2.72;0.80;;;;;;;17.18;38.37;102244.25;4990320;28;20029;-49
2022/05/12 02:19:00;;;;;;;3.42;1.13;;;;;;;17.27;38.23;102253.81;4996479;28;20088;-48
2022/05/12 02:21:27;;;;;;;2.83;1.00;;;;;;;17.47;37.03;102259.09;4992061;28;20045;-49
2022/05/12 02:23:53;;;;;;;1.88;0.80;;;;;;;17.41;37.59;102253.50;4993042;28;20096;-48
2022/05/12 02:26:21;;;;;;;3.90;1.13;;;;;;;17.67;36.73;102252.50;4999990;28;20372;-47
2022/05/12 02:28:48;;;;;;;2.95;0.90;;;;;;;17.86;36.37;102253.44;5012268;28;20022;-45
2022/05/12 02:31:14;;;;;;;1.33;0.63;;;;;;;17.65;36.46;102248.34;5012567;28;20036;-46
2022/05/12 02:33:40;;;;;;;2.55;0.80;;;;;;;17.42;37.37;102257.84;5012562;28;20104;-47
2022/05/12 02:36:07;;;;;;;3.80;0.90;;;;;;;17.06;38.00;102255.75;5001820;28;20283;-45
2022/05/12 02:38:33;;;;;;;3.90;1.08;;;;;;;16.72;38.67;102256.91;4992088;28;20088;-45
2022/05/12 02:40:59;;;;;;;3.10;1.00;;;;;;;16.47;39.39;102251.31;4992516;28;20030;-46
2022/05/12 02:43:26;;;;;;;3.20;0.80;;;;;;;16.14;40.26;102258.63;4999101;28;20100;-46
2022/05/12 02:45:58;;;;;;;2.67;0.82;;;;;;;16.02;41.06;102253.84;4985293;28;20027;-45
2022/05/12 02:48:28;;;;;;;2.53;0.90;;;;;;;15.86;41.47;102264.22;4987278;28;20030;-46
2022/05/12 02:50:54;;;;;;;2.42;0.77;;;;;;;15.57;42.32;102266.22;5001579;28;20027;-45
2022/05/12 02:53:21;;;;;;;3.35;1.00;;;;;;;15.20;42.81;102268.41;4984610;28;20348;-47
2022/05/12 02:55:47;;;;;;;4.78;0.75;;;;;;;15.11;43.02;102272.31;4971695;28;20034;-48
2022/05/12 02:58:14;;;;;;;3.28;0.70;;;;;;;14.95;43.78;102273.50;4972892;28;20146;-49
2022/05/12 03:00:40;;;;;;;4.72;1.17;;;;;;;14.85;44.08;102281.09;4986964;28;20036;-46
2022/05/12 03:03:07;;;;;;;3.13;0.75;;;;;;;14.81;44.04;102282.53;4978402;28;20055;-48
2022/05/12 03:05:36;;;;;;;3.85;0.93;;;;;;;14.51;44.78;102274.69;4972649;28;20114;-46
2022/05/12 03:08:02;;;;;;;4.63;0.73;;;;;;;14.43;44.89;102285.56;4972253;28;20483;-48
2022/05/12 03:10:29;;;;;;;3.50;1.10;;;;;;;14.37;44.67;102275.56;4987778;28;20447;-48
2022/05/12 03:12:55;;;;;;;3.17;0.77;;;;;;;14.26;44.54;102276.94;4992173;28;20023;-46
2022/05/12 03:15:21;;;;;;;3.60;0.88;;;;;;;14.41;44.01;102279.56;4994047;28;20080;-47
2022/05/12 03:17:47;;;;;;;4.15;0.77;;;;;;;14.09;44.33;102278.25;4984788;28;20044;-49
2022/05/12 03:20:16;;;;;;;5.28;0.88;;;;;;;13.94;44.89;102275.66;4993402;28;20464;-47
2022/05/12 03:22:42;;;;;;;2.75;0.77;;;;;;;13.82;45.21;102279.88;4991848;28;20031;-45
2022/05/12 03:25:11;;;;;;;4.28;0.90;;;;;;;13.83;44.62;102276.19;4989902;28;20113;-48
2022/05/12 03:27:38;;;;;;;4.32;0.80;;;;;;;13.51;45.58;102274.81;4996075;28;20046;-48
2022/05/12 03:30:07;;;;;;;3.90;1.00;;;;;;;13.55;45.46;102283.31;4995705;28;20026;-48
2022/05/12 03:32:34;;;;;;;2.70;0.85;;;;;;;13.42;45.59;102274.06;5015661;28;20049;-49
2022/05/12 03:35:00;;;;;;;2.50;0.80;;;;;;;13.39;45.26;102281.72;5014095;28;20088;-45
2022/05/12 03:37:26;;;;;;;4.10;1.00;;;;;;;13.28;45.00;102283.03;5000781;28;20121;-48
2022/05/12 03:39:52;;;;;;;6.07;1.08;;;;;;;13.35;44.31;102285.78;5014821;28;20109;-45
2022/05/12 03:42:19;;;;;;;4.95;0.75;;;;;;;13.50;44.98;102273.16;5007179;28;20368;-47
2022/05/12 03:44:55;;;;;;;3.05;1.08;;;;;;;13.47;45.04;102268.97;5005247;28;20030;-45
2022/05/12 03:47:22;;;;;;;;;;;;;;;13.40;45.37;102270.75;5004075;28;20050;-45
2022/05/12 03:49:50;;;;;;;3.33;1.10;;;;;;;13.43;44.60;102272.22;5015147;28;19943;-46
2022/05/12 03:52:17;;;;;;;3.78;0.88;;;;;;;13.48;44.80;102284.06;5015038;28;20105;-45
2022/05/12 03:54:44;;;;;;;4.78;1.50;;;;;;;13.56;44.53;102275.06;5015562;28;20453;-45
2022/05/12 03:57:13;;;;;;;3.80;1.20;;;;;;;13.48;44.91;102281.38;4999573;28;20019;-45
2022/05/12 03:59:40;;;;;;;4.47;0.88;;;;;;;13.58;44.04;102285.63;4994937;28;20039;-45
2022/05/12 04:02:08;;;;;;;3.28;1.00;;;;;;;13.52;44.27;102284.53;4994322;28;20042;-48
2022/05/12 04:04:35;;;;;;;3.60;0.80;;;;;;;13.46;44.65;102298.75;4995400;28;20027;-45
2022/05/12 04:07:02;;;;;;;4.38;1.08;;;;;;;13.46;44.57;102298.75;4995106;28;20037;-47
2022/05/12 04:09:28;;;;;;;2.13;0.80;;;;;;;13.42;45.20;102300.13;5003993;28;20593;-46
2022/05/12 04:11:55;;;;;;;5.63;0.85;;;;;;;13.48;45.32;102308.28;5010267;28;20066;-49
2022/05/12 04:14:22;;;;;;;3.85;0.80;;;;;;;13.20;45.58;102308.13;5014726;28;20033;-49
2022/05/12 04:16:48;;;;;;;1.83;0.80;;;;;;;13.04;46.12;102310.19;4997346;28;20045;-45
2022/05/12 04:19:15;;;;;;;4.03;1.15;;;;;;;12.97;46.34;102318.16;4993657;28;20042;-48
2022/05/12 04:21:42;;;;;;;1.90;0.65;;;;;;;12.74;47.47;102330.84;4993872;28;20030;-47
2022/05/12 04:24:09;;;;;;;1.23;0.70;;;;;;;12.70;47.21;102327.69;4993559;28;20092;-47
2022/05/12 04:26:40;;;;;;;5.55;1.00;;;;;;;12.42;48.47;102333.66;4994984;28;20031;-48
2022/05/12 04:29:07;;;;;;;2.70;0.60;;;;;;;12.30;48.59;102337.78;4994936;28;20034;-47
2022/05/12 04:31:33;;;;;;;1.98;0.77;;;;;;;12.34;48.36;102341.78;5009254;28;20033;-48
2022/05/12 04:36:44;;;;;;;2.25;0.70;;;;;;;12.25;48.59;102348.25;4994963;28;20089;-47
2022/05/12 04:39:11;;;;;;;1.98;0.75;;;;;;;12.28;48.72;102353.25;4994330;28;20117;-48
2022/05/12 04:41:37;;;;;;;4.25;1.00;;;;;;;12.35;48.15;102351.50;4994759;28;20041;-46
2022/05/12 04:44:05;;;;;;;3.70;0.88;;;;;;;12.24;47.80;102351.94;4994584;28;20101;-47
2022/05/12 04:46:34;;;;;;;2.97;0.90;;;;;;;12.28;47.67;102361.31;4994533;28;20127;-46
2022/05/12 04:49:01;;;;;;;3.20;0.68;;;;;;;12.23;47.52;102358.34;4994105;28;20038;-46
2022/05/12 04:51:28;;;;;;;2.22;0.68;;;;;;;12.26;47.41;102363.31;4994814;28;20045;-46
2022/05/12 04:53:54;;;;;;;2.05;0.80;;;;;;;12.26;47.67;102359.81;4994405;28;20431;-48
2022/05/12 04:56:20;;;;;;;2.40;0.45;;;;;;;12.28;47.63;102372.06;4993782;28;20034;-46
2022/05/12 04:58:46;;;;;;;4.70;1.15;;;;;;;12.15;48.41;102369.13;4985875;28;20038;-47
2022/05/12 05:01:13;;;;;;;3.50;0.98;;;;;;;12.18;48.20;102370.63;4993247;28;20463;-47
2022/05/12 05:03:39;;;;;;;2.40;0.88;;;;;;;12.21;48.46;102372.94;4992020;28;20030;-46
2022/05/12 05:06:05;;;;;;;3.05;0.90;;;;;;;12.12;48.87;102375.69;4992201;28;20067;-45
2022/05/12 05:08:32;;;;;;;3.13;0.80;;;;;;;12.05;48.80;102376.59;4994150;28;20069;-47
2022/05/12 05:10:58;;;;;;;4.53;0.80;;;;;;;12.07;49.00;102378.06;4982712;28;20439;-48
2022/05/12 05:13:24;;;;;;;4.38;1.00;;;;;;;12.10;48.93;102382.22;4986529;28;20525;-48
2022/05/12 05:15:53;;;;;;;2.58;1.00;;;;;;;12.20;48.64;102384.69;4992395;28;20030;-48
2022/05/12 05:18:21;;;;;;;4.05;1.10;;;;;;;12.26;48.91;102382.13;4974161;28;20062;-45
2022/05/12 05:20:48;;;;;;;2.42;1.20;;;;;;;12.20;48.26;102388.22;4974632;28;20031;-48
2022/05/12 05:23:21;;;;;;;6.70;2.15;;;;;;;12.21;48.50;102389.03;4993395;28;20089;-45
2022/05/12 05:25:51;;;;;;;4.47;1.17;;;;;;;12.15;48.66;102388.75;4993268;28;20026;-46
2022/05/12 05:28:17;;;;;;;3.85;1.38;;;;;;;11.97;49.15;102388.19;4990545;28;20122;-47
2022/05/12 05:30:45;;;;;;;3.17;0.93;;;;;;;12.01;49.24;102386.84;4981777;28;20048;-46
2022/05/12 05:33:11;;;;;;;2.92;1.10;;;;;;;11.89;49.54;102385.56;4992060;28;20045;-48
2022/05/12 05:35:38;;;;;;;5.60;1.00;;;;;;;12.06;48.78;102384.47;4993850;28;20101;-46
2022/05/12 05:38:04;;;;;;;6.40;0.82;;;;;;;11.98;48.13;102373.75;4992667;28;20022;-45
2022/05/12 05:40:31;;;;;;;4.03;0.93;;;;;;;11.91;49.01;102388.06;4992898;28;20049;-46
2022/05/12 05:42:58;;;;;;;4.70;0.90;;;;;;;11.76;49.29;102380.72;4992888;28;20033;-45
2022/05/12 05:45:25;;;;;;;2.58;1.02;;;;;;;11.77;49.46;102370.84;4993307;28;20395;-47
2022/05/12 05:47:58;;;;;;;5.65;1.10;;;;;;;11.66;49.62;102369.41;4992554;28;20084;-47
2022/05/12 05:50:30;;;;;;;3.42;0.73;;;;;;;11.58;49.57;102364.06;4992806;28;20399;-44
2022/05/12 05:55:42;;;;;;;1.97;0.80;;;;;;;11.44;50.25;102360.31;4993838;28;20052;-45
2022/05/12 05:58:09;;;;;;;3.97;1.00;;;;;;;11.49;49.80;102365.97;4992542;28;20511;-45
2022/05/12 06:00:37;;;;;;;1.38;0.60;;;;;;;11.55;49.40;102359.09;4993156;28;20533;-47
2022/05/12 06:03:05;;;;;;;3.47;1.25;;;;;;;11.63;49.30;102359.84;4992450;28;20080;-46
2022/05/12 06:05:31;;;;;;;2.55;0.85;;;;;;;11.64;48.81;102360.69;4984249;28;20034;-45
2022/05/12 06:07:58;;;;;;;5.88;0.90;;;;;;;11.61;49.12;102364.56;4973365;28;20515;-46
2022/05/12 06:10:25;;;;;;;4.43;0.93;;;;;;;11.65;49.43;102365.03;4991067;28;20065;-46
2022/05/12 06:12:51;;;;;;;3.92;1.08;;;;;;;11.76;48.48;102367.31;4992584;28;20089;-45
2022/05/12 06:15:17;;;;;;;4.93;1.00;;;;;;;11.72;48.95;102368.72;4991806;28;20026;-45
2022/05/12 06:17:43;;;;;;;2.63;0.77;;;;;;;11.67;49.04;102365.72;4992872;28;20050;-45
2022/05/12 06:20:11;;;;;;;2.80;0.60;;;;;;;11.73;49.53;102365.00;4991715;28;20080;-45
2022/05/12 06:22:37;;;;;;;3.42;1.02;;;;;;;11.73;49.27;102365.00;4991917;28;20038;-47
2022/05/12 06:25:07;;;;;;;3.35;0.85;;;;;;;11.67;49.64;102371.09;4991200;28;20023;-45
2022/05/12 06:27:34;;;;;;;2.55;1.08;;;;;;;11.74;49.12;102369.34;4992501;28;20435;-44
2022/05/12 06:30:01;;;;;;;3.97;0.90;;;;;;;11.68;50.15;102369.22;4992485;28;20482;-47
2022/05/12 06:32:28;;;;;;;4.80;0.77;;;;;;;11.67;49.63;102371.09;4993056;28;20365;-46
2022/05/12 06:34:54;;;;;;;2.70;0.70;;;;;;;11.74;49.00;102372.03;4992019;28;20081;-46
2022/05/12 06:37:21;;;;;;;2.05;0.60;;;;;;;11.94;48.30;102375.16;4992032;28;20026;-44
2022/05/12 06:39:47;;;;;;;3.25;0.98;;;;;;;11.79;49.36;102369.66;4984916;28;20027;-45
2022/05/12 06:42:14;;;;;;;3.85;0.90;;;;;;;11.75;49.36;102383.59;4973168;28;20023;-47
2022/05/12 06:44:43;;;;;;;1.67;0.80;;;;;;;11.82;49.02;102371.19;4986892;28;20030;-48
2022/05/12 06:47:13;;;;;;;3.17;0.70;;;;;;;11.78;49.73;102380.59;4991085;28;20030;-47
2022/05/12 06:49:40;;;;;;;1.60;0.80;;;;;;;11.94;49.57;102374.28;4991381;28;20053;-48
2022/05/12 06:52:07;;;;;;;4.55;0.93;;;;;;;11.76;50.80;102375.38;4992356;28;20084;-48
2022/05/12 06:54:36;;;;;;;4.00;0.90;;;;;;;11.82;50.85;102374.69;4991364;28;20085;-48
2022/05/12 06:57:02;;;;;;;2.05;0.85;;;;;;;11.73;52.19;102377.59;4992470;28;20031;-48
2022/05/12 06:59:29;;;;;;;1.02;0.70;;;;;;;11.69;51.83;102377.09;4980972;28;20026;-48
2022/05/12 07:01:55;;;;;;;2.42;0.80;;;;;;;11.82;51.76;102384.59;4971921;28;20055;-46
2022/05/12 07:04:24;;;;;;;4.90;1.00;;;;;;;11.66;52.87;102380.16;4974063;28;20035;-44
2022/05/12 07:06:51;;;;;;;6.15;1.48;;;;;;;11.54;52.80;102387.72;4981673;28;20027;-47
2022/05/12 07:09:18;;;;;;;5.07;1.23;;;;;;;11.61;53.36;102383.34;4990147;28;20034;-49
2022/05/12 07:11:46;;;;;;;2.53;1.13;;;;;;;11.56;53.44;102379.53;4976364;28;20027;-45
2022/05/12 07:14:14;;;;;;;5.20;1.10;;;;;;;11.48;53.80;102383.06;4973390;28;20027;-48
2022/05/12 07:16:42;;;;;;;6.03;1.02;;;;;;;11.33;54.43;102372.25;4977336;28;20545;-48
2022/05/12 07:19:11;;;;;;;5.57;1.00;;;;;;;11.43;53.32;102371.19;4970679;28;20498;-45
2022/05/12 07:27:07;;;;;;;2.75;0.82;;;;;;;11.32;54.16;102383.13;4972649;28;20089;-47
2022/05/12 07:29:34;;;;;;;5.13;1.02;;;;;;;11.25;53.95;102382.97;4979365;28;20060;-47
2022/05/12 07:32:01;;;;;;;3.95;1.20;;;;;;;11.43;52.68;102389.94;4976024;28;20038;-48
2022/05/12 07:34:27;;;;;;;3.22;0.82;;;;;;;11.27;53.80;102396.19;4972737;28;20042;-47
2022/05/12 07:36:54;;;;;;;5.55;1.50;;;;;;;11.22;54.34;102394.06;4972287;28;20037;-47
2022/05/12 07:39:25;;;;;;;6.60;0.93;;;;;;;11.43;53.78;102389.94;4972180;28;20027;-46
2022/05/12 07:41:52;;;;;;;3.35;0.90;;;;;;;11.55;53.36;102396.63;4975645;28;20026;-48
2022/05/12 07:44:19;;;;;;;4.50;1.00;;;;;;;11.37;53.33;102395.00;4974647;28;20030;-47
2022/05/12 07:46:46;;;;;;;5.10;0.90;;;;;;;11.35;53.13;102393.50;5009412;28;20057;-45
2022/05/12 07:49:13;;;;;;;4.80;1.52;;;;;;;11.31;53.49;102395.69;4973494;28;20395;-46
2022/05/12 07:51:39;;;;;;;3.95;1.15;;;;;;;11.31;53.16;102390.31;4972522;28;20022;-46
2022/05/12 07:54:05;;;;;;;4.05;1.15;;;;;;;11.24;53.10;102397.41;4972384;28;20033;-48
2022/05/12 07:56:32;;;;;;;4.53;1.00;;;;;;;11.19;53.04;102394.41;4975918;28;20015;-47
2022/05/12 07:58:59;;;;;;;3.10;0.88;;;;;;;11.17;53.15;102400.94;5000355;28;20026;-46
2022/05/12 08:01:27;;;;;;;3.78;1.45;;;;;;;11.20;53.16;102398.75;4973345;28;20603;-46
2022/05/12 08:03:54;;;;;;;3.08;0.98;;;;;;;11.35;51.87;102394.34;4971020;28;20031;-48
2022/05/12 08:06:21;;;;;;;3.63;0.70;;;;;;;11.14;52.56;102396.75;4984148;28;20108;-48
2022/05/12 08:08:49;;;;;;;4.93;1.10;;;;;;;11.16;52.03;102393.88;4987864;28;20611;-48
2022/05/12 08:11:16;;;;;;;4.90;1.05;;;;;;;11.19;51.61;102398.91;4972823;28;20070;-46
2022/05/12 08:13:47;;;;;;;5.65;0.90;;;;;;;11.00;52.32;102397.47;4975918;28;20543;-46
2022/05/12 08:16:15;;;;;;;3.00;0.80;;;;;;;10.93;52.23;102399.97;4973588;28;20503;-48
2022/05/12 08:18:44;;;;;;;4.60;1.00;;;;;;;10.97;52.63;102405.84;4973040;28;20077;-45
2022/05/12 08:21:10;;;;;;;2.90;1.00;;;;;;;10.82;52.75;102406.50;4974933;28;20037;-48
2022/05/12 08:23:36;;;;;;;4.32;0.90;;;;;;;10.90;52.36;102407.53;4974668;28;20033;-47
2022/05/12 08:26:03;;;;;;;2.17;0.68;;;;;;;10.92;52.28;102411.69;4974596;28;20480;-47
2022/05/12 08:28:29;;;;;;;1.60;1.00;;;;;;;10.92;52.37;102409.03;4975500;28;20058;-46
2022/05/12 08:30:56;;;;;;;3.63;1.17;;;;;;;10.79;52.77;102403.34;4992978;28;20038;-48
2022/05/12 08:33:23;;;;;;;2.70;0.80;;;;;;;10.90;51.85;102410.22;4992634;28;20053;-49
2022/05/12 08:35:50;;;;;;;3.30;1.05;;;;;;;10.86;52.05;102416.91;4975661;28;20110;-48
2022/05/12 08:38:19;;;;;;;4.68;1.40;;;;;;;10.82;52.07;102425.25;4974188;28;20034;-45
2022/05/12 08:41:06;;;;;;;2.92;0.90;;;;;;;10.89;51.59;102420.09;4979330;28;20042;-48
2022/05/12 08:43:40;;;;;;;3.92;1.10;;;;;;;10.77;51.76;102422.28;4976092;28;20031;-48
2022/05/12 08:46:10;;;;;;;2.42;1.10;;;;;;;10.78;51.07;102410.56;4994641;28;20076;-47
2022/05/12 08:48:43;;;;;;;3.40;0.70;;;;;;;10.87;49.99;102413.22;4993050;28;20081;-48
2022/05/12 08:51:15;;;;;;;5.63;0.80;;;;;;;10.91;49.52;102414.56;4994118;28;20018;-48
2022/05/12 08:53:57;;;;;;;2.40;0.80;;;;;;;10.69;49.74;102414.22;4972831;28;20027;-48
2022/05/12 08:56:25;;;;;;;4.63;0.70;;;;;;;10.55;49.33;102409.56;4974318;28;20034;-49
2022/05/12 08:58:55;;;;;;;2.28;0.73;;;;;;;10.62;49.17;102417.75;4972900;28;20133;-48
2022/05/12 09:01:24;;;;;;;1.98;0.60;;;;;;;10.67;49.00;102416.25;4974453;28;19992;-48
2022/05/12 09:04:17;;;;;;;1.27;0.55;;;;;;;10.65;49.05;102418.25;4974983;28;20042;-49
2022/05/12 09:07:16;;;;;;;3.70;1.00;;;;;;;10.58;49.56;102409.22;4974289;28;20085;-48
2022/05/12 09:10:00;;;;;;;3.03;1.23;;;;;;;10.60;49.87;102401.84;4973475;28;20169;-47
2022/05/12 09:12:35;;;;;;;1.85;0.60;;;;;;;10.64;48.61;102392.47;4974222;28;20090;-48
2022/05/12 09:15:08;;;;;;;2.42;0.50;;;;;;;10.53;49.04;102392.81;4973493;28;20031;-44
2022/05/12 09:17:52;;;;;;;1.48;0.60;;;;;;;10.64;48.79;102402.34;4986707;28;20038;-47
2022/05/12 09:20:18;;;;;;;2.75;0.68;;;;;;;10.66;48.66;102398.53;4973901;28;20030;-45
2022/05/12 09:22:45;;;;;;;3.85;0.60;;;;;;;10.49;48.93;102396.81;4972259;28;20038;-45
2022/05/12 09:25:41;;;;;;;1.75;0.75;;;;;;;10.60;48.39;102392.97;4973963;28;20100;-45
2022/05/12 09:28:19;;;;;;;5.97;0.60;;;;;;;10.24;49.30;102394.16;4973515;28;20423;-46
2022/05/12 09:30:48;;;;;;;1.05;0.52;;;;;;;10.48;48.32;102395.16;4972881;28;20035;-49
2022/05/12 09:33:29;;;;;;;3.00;0.80;;;;;;;10.53;47.86;102403.53;4975013;28;20069;-48
2022/05/12 09:36:01;;;;;;;1.70;0.68;;;;;;;10.32;48.74;102404.00;4973140;28;20026;-46
2022/05/12 09:38:28;;;;;;;2.17;0.70;;;;;;;10.28;48.35;102400.84;4974271;28;20031;-48
2022/05/12 09:40:55;;;;;;;1.30;0.50;;;;;;;10.29;48.69;102399.84;4984691;28;20089;-48
2022/05/12 09:43:31;;;;;;;1.95;0.70;;;;;;;10.34;48.51;102401.19;4974582;28;20110;-45
2022/05/12 09:46:02;;;;;;;3.38;0.70;;;;;;;10.38;48.71;102398.00;4974105;28;20061;-45
2022/05/12 09:48:31;;;;;;;3.63;0.75;;;;;;;10.39;48.37;102397.00;4972442;28;20075;-49
2022/05/12 09:51:24;;;;;;;2.70;0.60;;;;;;;10.46;48.13;102392.66;4973905;28;20027;-48
2022/05/12 09:53:55;;;;;;;1.73;0.70;;;;;;;10.48;47.96;102387.13;4972289;28;20384;-46
2022/05/12 09:56:34;;;;;;;3.85;0.70;;;;;;;10.46;48.63;102389.16;4973732;28;20088;-48
2022/05/12 09:59:00;;;;;;;1.35;0.63;;;;;;;10.52;48.22;102391.16;4971820;28;20510;-47
2022/05/12 10:01:30;;;;;;;4.38;0.85;;;;;;;10.45;48.20;102390.16;4973029;28;20408;-49
2022/05/12 10:10:25;;;;;;;2.05;0.45;;;;;;;10.27;48.49;102382.25;4950416;28;20050;-48
2022/05/12 10:12:54;;;;;;;3.78;0.60;;;;;;;10.26;48.47;102372.56;4960763;28;20058;-46
2022/05/12 10:15:29;;;;;;;1.70;0.50;;;;;;;10.35;48.14;102382.28;4973376;28;20038;-48
2022/05/12 10:18:17;;;;;;;2.00;0.52;;;;;;;10.31;48.28;102381.78;4971611;28;20492;-46
2022/05/12 10:20:49;;;;;;;2.65;0.52;;;;;;;10.42;47.91;102379.78;4972948;28;20047;-48
2022/05/12 10:23:34;;;;;;;0.57;0.30;;;;;;;10.35;48.39;102381.44;4972115;28;20030;-46
2022/05/12 10:26:20;;;;;;;2.28;0.50;;;;;;;10.27;48.63;102375.09;4972498;28;20165;-49
2022/05/12 10:29:19;;;;;;;2.30;0.60;;;;;;;10.40;48.70;102377.28;4972993;28;20535;-47
2022/05/12 10:31:57;;;;;;;2.47;1.33;;;;;;;10.43;49.08;102374.25;4970253;28;20132;-46
2022/05/12 10:34:46;;;;;;;4.10;0.63;;;;;;;10.24;49.17;102378.09;4989379;28;20073;-47
2022/05/12 10:37:31;;;;;;;2.50;0.65;;;;;;;10.22;49.27;102389.94;4984504;28;20034;-49
2022/05/12 10:40:22;;;;;;;3.00;0.70;;;;;;;10.18;49.77;102389.44;4972746;28;20038;-47
2022/05/12 10:43:05;;;;;;;3.80;0.90;;;;;;;10.16;50.87;102398.59;4972417;28;20050;-48
2022/05/12 10:45:49;;;;;;;5.03;0.80;;;;;;;10.09;51.49;102406.47;4972961;28;20380;-48
2022/05/12 10:48:27;;;;;;;2.03;0.82;;;;;;;9.76;52.18;102411.72;4972813;28;20031;-49
2022/05/12 10:51:03;;;;;;;2.22;1.10;;;;;;;9.64;53.12;102398.81;4972475;28;20508;-45
2022/05/12 10:53:48;;;;;;;3.88;0.90;;;;;;;9.83;52.89;102403.91;4973481;28;20026;-45
2022/05/12 10:56:55;;;;;;;3.10;0.73;;;;;;;9.96;53.77;102408.78;4974317;28;20418;-47
2022/05/12 10:59:43;;;;;;;2.97;0.68;;;;;;;9.92;54.32;102404.75;4985327;28;20521;-47
2022/05/12 11:02:41;;;;;;;2.97;0.70;;;;;;;9.82;54.37;102410.25;4973799;28;20043;-46
2022/05/12 11:05:29;;;;;;;2.30;0.50;;;;;;;9.84;53.69;102402.91;4969055;28;20039;-46
2022/05/12 11:08:04;;;;;;;0.93;0.63;;;;;;;9.79;54.24;102406.06;4971137;28;20031;-46
2022/05/12 11:10:50;;;;;;;;;;;;;;;9.76;54.82;102402.88;4974239;28;20023;-47
2022/05/12 11:13:37;;;;;;;0.80;0.40;;;;;;;9.77;53.41;102401.88;4970627;28;19961;-45
2022/05/12 11:16:16;;;;;;;2.47;0.85;;;;;;;9.70;53.57;102407.03;4983284;28;20042;-46
2022/05/12 11:19:05;;;;;;;1.63;0.90;;;;;;;9.70;54.92;102409.69;4984419;28;20113;-47
2022/05/12 11:21:57;;;;;;;4.32;0.60;;;;;;;9.76;53.80;102411.72;4979157;28;20125;-47
2022/05/12 11:24:29;;;;;;;1.92;0.70;;;;;;;9.77;54.15;102410.75;4981842;28;20033;-47
2022/05/12 11:27:09;;;;;;;2.13;0.75;;;;;;;9.72;54.64;102409.56;4992105;28;20022;-50
2022/05/12 11:29:56;;;;;;;2.15;0.80;;;;;;;9.77;54.75;102416.09;4992088;28;20073;-48
2022/05/12 11:33:10;;;;;;;3.70;0.65;;;;;;;9.64;55.33;102410.34;4990309;28;20034;-47
2022/05/12 11:35:43;;;;;;;1.52;0.95;;;;;;;9.72;54.68;102413.06;4986719;28;20030;-48
2022/05/12 11:38:30;;;;;;;1.38;0.50;;;;;;;9.80;54.87;102414.94;4991661;28;20109;-47
2022/05/12 11:40:57;;;;;;;6.18;0.90;;;;;;;9.70;56.38;102409.69;4988262;28;20030;-47
2022/05/12 11:46:24;;;;;;;2.53;0.63;;;;;;;9.81;56.69;102407.75;4992883;28;20045;-46
2022/05/12 11:48:50;;;;;;;3.20;0.70;;;;;;;9.65;57.40;102406.66;4994185;28;20132;-47
2022/05/12 11:51:35;;;;;;;2.13;0.60;;;;;;;9.77;56.69;102399.19;4993902;28;20065;-45
2022/05/12 11:54:07;;;;;;;2.27;0.80;;;;;;;9.78;58.10;102396.38;4985148;28;20038;-47
2022/05/12 11:56:42;;;;;;;3.78;0.80;;;;;;;9.59;58.52;102396.63;5007796;28;20103;-44
2022/05/12 11:59:33;;;;;;;4.60;0.87;;;;;;;9.66;58.45;102400.34;4995473;28;20125;-45
2022/05/12 12:02:25;;;;;;;3.70;1.00;;;;;;;9.66;58.84;102400.34;4997035;28;20042;-46
2022/05/12 12:04:52;;;;;;;4.53;0.93;;;;;;;9.40;60.58;102396.91;4982480;28;20490;-45